sensor_id;sensor_type;location;lat;lon;timestamp;P1;durP1;ratioP1;P2;durP2;ratioP2
69246;SDS011;56358;56.328;43.992;2023-05-07T00:01:18;4.68;;;2.30;;
69246;SDS011;56358;56.328;43.992;2023-05-07T00:03:19;6.75;;;2.53;;
69246;SDS011;56358;56.328;43.992;2023-05-07T00:05:20;5.28;;;2.20;;
69246;SDS011;56358;56.328;43.992;2023-05-07T00:07:21;6.28;;;2.40;;
69246;SDS011;56358;56.328;43.992;2023-05-07T00:09:21;4.18;;;2.10;;
69246;SDS011;56358;56.328;43.992;2023-05-07T00:11:22;6.75;;;1.92;;
69246;SDS011;56358;56.328;43.992;2023-05-07T00:13:23;3.60;;;1.85;;
69246;SDS011;56358;56.328;43.992;2023-05-07T00:15:23;4.70;;;1.95;;
69246;SDS011;56358;56.328;43.992;2023-05-07T00:17:24;4.18;;;1.80;;
69246;SDS011;56358;56.328;43.992;2023-05-07T00:19:25;7.63;;;2.17;;
69246;SDS011;56358;56.328;43.992;2023-05-07T00:21:26;12.23;;;3.05;;
69246;SDS011;56358;56.328;43.992;2023-05-07T00:23:27;7.43;;;2.63;;
69246;SDS011;56358;56.328;43.992;2023-05-07T00:25:28;4.22;;;1.98;;
69246;SDS011;56358;56.328;43.992;2023-05-07T00:27:29;5.03;;;2.63;;
69246;SDS011;56358;56.328;43.992;2023-05-07T00:29:29;6.90;;;2.47;;
69246;SDS011;56358;56.328;43.992;2023-05-07T00:31:30;3.60;;;2.25;;
69246;SDS011;56358;56.328;43.992;2023-05-07T00:33:31;7.20;;;2.35;;
69246;SDS011;56358;56.328;43.992;2023-05-07T00:35:31;7.03;;;2.38;;
69246;SDS011;56358;56.328;43.992;2023-05-07T00:37:32;4.22;;;1.92;;
69246;SDS011;56358;56.328;43.992;2023-05-07T00:39:33;5.88;;;2.25;;
69246;SDS011;56358;56.328;43.992;2023-05-07T00:41:34;5.95;;;2.10;;
69246;SDS011;56358;56.328;43.992;2023-05-07T00:43:35;5.20;;;2.22;;
69246;SDS011;56358;56.328;43.992;2023-05-07T00:45:36;4.57;;;1.90;;
69246;SDS011;56358;56.328;43.992;2023-05-07T00:47:37;3.95;;;2.00;;
69246;SDS011;56358;56.328;43.992;2023-05-07T00:49:39;7.63;;;2.20;;
69246;SDS011;56358;56.328;43.992;2023-05-07T00:51:42;5.03;;;2.30;;
69246;SDS011;56358;56.328;43.992;2023-05-07T00:53:44;3.97;;;1.88;;
69246;SDS011;56358;56.328;43.992;2023-05-07T00:55:46;4.88;;;2.15;;
69246;SDS011;56358;56.328;43.992;2023-05-07T00:57:46;4.65;;;2.28;;
69246;SDS011;56358;56.328;43.992;2023-05-07T00:59:48;9.10;;;2.35;;
69246;SDS011;56358;56.328;43.992;2023-05-07T01:01:48;4.22;;;1.88;;
69246;SDS011;56358;56.328;43.992;2023-05-07T01:03:49;5.32;;;2.33;;
69246;SDS011;56358;56.328;43.992;2023-05-07T01:05:50;4.50;;;1.83;;
69246;SDS011;56358;56.328;43.992;2023-05-07T01:07:52;3.65;;;1.55;;
69246;SDS011;56358;56.328;43.992;2023-05-07T01:09:55;10.60;;;2.25;;
69246;SDS011;56358;56.328;43.992;2023-05-07T01:11:56;4.30;;;2.05;;
69246;SDS011;56358;56.328;43.992;2023-05-07T01:13:58;5.00;;;2.25;;
69246;SDS011;56358;56.328;43.992;2023-05-07T01:16:00;11.00;;;2.25;;
69246;SDS011;56358;56.328;43.992;2023-05-07T01:18:01;7.85;;;1.77;;
69246;SDS011;56358;56.328;43.992;2023-05-07T01:20:02;5.75;;;2.30;;
69246;SDS011;56358;56.328;43.992;2023-05-07T01:22:08;3.33;;;2.03;;
69246;SDS011;56358;56.328;43.992;2023-05-07T01:24:12;5.40;;;2.30;;
69246;SDS011;56358;56.328;43.992;2023-05-07T01:26:12;4.07;;;1.90;;
69246;SDS011;56358;56.328;43.992;2023-05-07T01:28:13;5.10;;;2.38;;
69246;SDS011;56358;56.328;43.992;2023-05-07T01:30:14;5.43;;;2.22;;
69246;SDS011;56358;56.328;43.992;2023-05-07T01:32:17;4.50;;;2.03;;
69246;SDS011;56358;56.328;43.992;2023-05-07T01:34:22;6.28;;;2.13;;
69246;SDS011;56358;56.328;43.992;2023-05-07T01:36:23;7.53;;;2.15;;
69246;SDS011;56358;56.328;43.992;2023-05-07T01:38:27;6.35;;;2.50;;
69246;SDS011;56358;56.328;43.992;2023-05-07T01:40:29;3.85;;;1.83;;
69246;SDS011;56358;56.328;43.992;2023-05-07T01:42:30;4.13;;;1.90;;
69246;SDS011;56358;56.328;43.992;2023-05-07T01:44:31;6.85;;;2.50;;
69246;SDS011;56358;56.328;43.992;2023-05-07T01:46:32;3.42;;;1.75;;
69246;SDS011;56358;56.328;43.992;2023-05-07T01:48:34;5.53;;;2.33;;
69246;SDS011;56358;56.328;43.992;2023-05-07T01:50:35;6.18;;;2.60;;
69246;SDS011;56358;56.328;43.992;2023-05-07T01:52:37;6.50;;;2.17;;
69246;SDS011;56358;56.328;43.992;2023-05-07T01:54:38;3.90;;;1.83;;
69246;SDS011;56358;56.328;43.992;2023-05-07T01:56:39;6.53;;;2.10;;
69246;SDS011;56358;56.328;43.992;2023-05-07T01:58:41;5.75;;;2.28;;
69246;SDS011;56358;56.328;43.992;2023-05-07T02:00:42;7.82;;;2.30;;
69246;SDS011;56358;56.328;43.992;2023-05-07T02:02:43;4.70;;;2.13;;
69246;SDS011;56358;56.328;43.992;2023-05-07T02:04:43;7.47;;;2.00;;
69246;SDS011;56358;56.328;43.992;2023-05-07T02:06:44;4.00;;;2.00;;
69246;SDS011;56358;56.328;43.992;2023-05-07T02:08:45;4.82;;;1.75;;
69246;SDS011;56358;56.328;43.992;2023-05-07T02:10:46;4.88;;;2.10;;
69246;SDS011;56358;56.328;43.992;2023-05-07T02:12:47;6.40;;;2.50;;
69246;SDS011;56358;56.328;43.992;2023-05-07T02:14:47;6.13;;;2.40;;
69246;SDS011;56358;56.328;43.992;2023-05-07T02:16:48;5.75;;;2.28;;
69246;SDS011;56358;56.328;43.992;2023-05-07T02:18:49;5.95;;;1.90;;
69246;SDS011;56358;56.328;43.992;2023-05-07T02:20:50;6.43;;;2.13;;
69246;SDS011;56358;56.328;43.992;2023-05-07T02:22:52;6.65;;;2.28;;
69246;SDS011;56358;56.328;43.992;2023-05-07T02:24:53;5.07;;;2.25;;
69246;SDS011;56358;56.328;43.992;2023-05-07T02:26:53;3.67;;;1.65;;
69246;SDS011;56358;56.328;43.992;2023-05-07T02:28:54;3.85;;;1.60;;
69246;SDS011;56358;56.328;43.992;2023-05-07T02:30:55;3.88;;;1.98;;
69246;SDS011;56358;56.328;43.992;2023-05-07T02:32:56;4.88;;;1.90;;
69246;SDS011;56358;56.328;43.992;2023-05-07T02:34:56;5.10;;;1.92;;
69246;SDS011;56358;56.328;43.992;2023-05-07T02:36:57;2.90;;;1.67;;
69246;SDS011;56358;56.328;43.992;2023-05-07T02:38:58;3.80;;;2.15;;
69246;SDS011;56358;56.328;43.992;2023-05-07T02:40:58;4.38;;;1.70;;
69246;SDS011;56358;56.328;43.992;2023-05-07T02:42:59;3.40;;;1.75;;
69246;SDS011;56358;56.328;43.992;2023-05-07T02:45:00;4.95;;;2.08;;
69246;SDS011;56358;56.328;43.992;2023-05-07T02:47:03;2.97;;;1.55;;
69246;SDS011;56358;56.328;43.992;2023-05-07T02:49:04;6.82;;;1.98;;
69246;SDS011;56358;56.328;43.992;2023-05-07T02:51:06;5.88;;;2.47;;
69246;SDS011;56358;56.328;43.992;2023-05-07T02:53:06;4.05;;;2.05;;
69246;SDS011;56358;56.328;43.992;2023-05-07T02:55:07;5.63;;;1.95;;
69246;SDS011;56358;56.328;43.992;2023-05-07T02:57:08;3.10;;;1.83;;
69246;SDS011;56358;56.328;43.992;2023-05-07T02:59:09;3.67;;;1.63;;
69246;SDS011;56358;56.328;43.992;2023-05-07T03:01:10;3.85;;;2.25;;
69246;SDS011;56358;56.328;43.992;2023-05-07T03:03:11;6.82;;;2.00;;
69246;SDS011;56358;56.328;43.992;2023-05-07T03:05:12;5.60;;;1.92;;
69246;SDS011;56358;56.328;43.992;2023-05-07T03:07:14;3.50;;;1.73;;
69246;SDS011;56358;56.328;43.992;2023-05-07T03:09:15;4.55;;;1.73;;
69246;SDS011;56358;56.328;43.992;2023-05-07T03:11:17;3.42;;;1.60;;
69246;SDS011;56358;56.328;43.992;2023-05-07T03:13:17;3.55;;;1.70;;
69246;SDS011;56358;56.328;43.992;2023-05-07T03:15:18;3.55;;;1.90;;
69246;SDS011;56358;56.328;43.992;2023-05-07T03:17:20;2.72;;;1.35;;
69246;SDS011;56358;56.328;43.992;2023-05-07T03:19:21;4.85;;;1.70;;
69246;SDS011;56358;56.328;43.992;2023-05-07T03:21:21;2.92;;;1.63;;
69246;SDS011;56358;56.328;43.992;2023-05-07T03:23:22;3.50;;;1.77;;
69246;SDS011;56358;56.328;43.992;2023-05-07T03:25:23;4.00;;;1.50;;
69246;SDS011;56358;56.328;43.992;2023-05-07T03:27:24;3.25;;;1.70;;
69246;SDS011;56358;56.328;43.992;2023-05-07T03:29:25;3.10;;;1.90;;
69246;SDS011;56358;56.328;43.992;2023-05-07T03:31:25;4.50;;;1.63;;
69246;SDS011;56358;56.328;43.992;2023-05-07T03:33:26;3.75;;;1.75;;
69246;SDS011;56358;56.328;43.992;2023-05-07T03:35:27;3.90;;;1.63;;
69246;SDS011;56358;56.328;43.992;2023-05-07T03:37:28;3.97;;;1.60;;
69246;SDS011;56358;56.328;43.992;2023-05-07T03:39:29;3.15;;;1.70;;
69246;SDS011;56358;56.328;43.992;2023-05-07T03:41:30;3.15;;;1.40;;
69246;SDS011;56358;56.328;43.992;2023-05-07T03:43:32;5.50;;;2.25;;
69246;SDS011;56358;56.328;43.992;2023-05-07T03:45:33;3.97;;;1.73;;
69246;SDS011;56358;56.328;43.992;2023-05-07T03:47:33;4.85;;;1.73;;
69246;SDS011;56358;56.328;43.992;2023-05-07T03:49:35;4.50;;;1.73;;
69246;SDS011;56358;56.328;43.992;2023-05-07T03:51:35;5.47;;;1.70;;
69246;SDS011;56358;56.328;43.992;2023-05-07T03:53:36;5.18;;;1.70;;
69246;SDS011;56358;56.328;43.992;2023-05-07T03:55:37;4.53;;;1.80;;
69246;SDS011;56358;56.328;43.992;2023-05-07T03:57:37;3.25;;;1.60;;
69246;SDS011;56358;56.328;43.992;2023-05-07T03:59:38;4.40;;;1.77;;
69246;SDS011;56358;56.328;43.992;2023-05-07T04:01:39;8.48;;;1.88;;
69246;SDS011;56358;56.328;43.992;2023-05-07T04:03:40;2.58;;;1.50;;
69246;SDS011;56358;56.328;43.992;2023-05-07T04:05:40;4.03;;;1.50;;
69246;SDS011;56358;56.328;43.992;2023-05-07T04:07:41;4.18;;;1.50;;
69246;SDS011;56358;56.328;43.992;2023-05-07T04:09:42;4.18;;;1.60;;
69246;SDS011;56358;56.328;43.992;2023-05-07T04:11:43;2.28;;;1.38;;
69246;SDS011;56358;56.328;43.992;2023-05-07T04:13:43;5.55;;;2.10;;
69246;SDS011;56358;56.328;43.992;2023-05-07T04:15:44;2.88;;;1.40;;
69246;SDS011;56358;56.328;43.992;2023-05-07T04:17:46;2.60;;;1.30;;
69246;SDS011;56358;56.328;43.992;2023-05-07T04:19:47;3.65;;;1.80;;
69246;SDS011;56358;56.328;43.992;2023-05-07T04:21:48;2.60;;;1.40;;
69246;SDS011;56358;56.328;43.992;2023-05-07T04:23:48;8.07;;;1.80;;
69246;SDS011;56358;56.328;43.992;2023-05-07T04:25:50;3.45;;;1.58;;
69246;SDS011;56358;56.328;43.992;2023-05-07T04:27:50;4.68;;;1.52;;
69246;SDS011;56358;56.328;43.992;2023-05-07T04:29:51;3.65;;;1.73;;
69246;SDS011;56358;56.328;43.992;2023-05-07T04:31:55;4.38;;;1.63;;
69246;SDS011;56358;56.328;43.992;2023-05-07T04:33:56;4.07;;;1.63;;
69246;SDS011;56358;56.328;43.992;2023-05-07T04:35:57;3.97;;;1.92;;
69246;SDS011;56358;56.328;43.992;2023-05-07T04:38:02;4.45;;;1.67;;
69246;SDS011;56358;56.328;43.992;2023-05-07T04:40:04;4.25;;;1.50;;
69246;SDS011;56358;56.328;43.992;2023-05-07T04:42:05;2.70;;;1.30;;
69246;SDS011;56358;56.328;43.992;2023-05-07T04:44:09;3.92;;;1.60;;
69246;SDS011;56358;56.328;43.992;2023-05-07T04:46:09;3.55;;;1.77;;
69246;SDS011;56358;56.328;43.992;2023-05-07T04:48:10;2.83;;;1.40;;
69246;SDS011;56358;56.328;43.992;2023-05-07T04:50:12;4.30;;;1.70;;
69246;SDS011;56358;56.328;43.992;2023-05-07T04:52:13;4.90;;;1.60;;
69246;SDS011;56358;56.328;43.992;2023-05-07T04:54:15;3.05;;;1.35;;
69246;SDS011;56358;56.328;43.992;2023-05-07T04:56:16;3.55;;;1.60;;
69246;SDS011;56358;56.328;43.992;2023-05-07T04:58:16;4.75;;;1.70;;
69246;SDS011;56358;56.328;43.992;2023-05-07T05:00:17;2.95;;;1.30;;
69246;SDS011;56358;56.328;43.992;2023-05-07T05:02:19;3.97;;;1.95;;
69246;SDS011;56358;56.328;43.992;2023-05-07T05:04:20;4.15;;;1.70;;
69246;SDS011;56358;56.328;43.992;2023-05-07T05:06:21;4.97;;;1.70;;
69246;SDS011;56358;56.328;43.992;2023-05-07T05:08:22;2.63;;;1.52;;
69246;SDS011;56358;56.328;43.992;2023-05-07T05:10:22;3.85;;;1.63;;
69246;SDS011;56358;56.328;43.992;2023-05-07T05:12:23;3.42;;;1.63;;
69246;SDS011;56358;56.328;43.992;2023-05-07T05:14:24;8.50;;;1.80;;
69246;SDS011;56358;56.328;43.992;2023-05-07T05:16:24;3.85;;;1.70;;
69246;SDS011;56358;56.328;43.992;2023-05-07T05:18:26;2.88;;;1.48;;
69246;SDS011;56358;56.328;43.992;2023-05-07T05:20:26;3.00;;;1.58;;
69246;SDS011;56358;56.328;43.992;2023-05-07T05:22:27;2.95;;;1.40;;
69246;SDS011;56358;56.328;43.992;2023-05-07T05:24:30;3.60;;;1.58;;
69246;SDS011;56358;56.328;43.992;2023-05-07T05:26:31;3.35;;;1.48;;
69246;SDS011;56358;56.328;43.992;2023-05-07T05:28:32;3.03;;;1.50;;
69246;SDS011;56358;56.328;43.992;2023-05-07T05:30:33;2.20;;;1.35;;
69246;SDS011;56358;56.328;43.992;2023-05-07T05:32:33;3.30;;;1.42;;
69246;SDS011;56358;56.328;43.992;2023-05-07T05:34:34;4.50;;;1.50;;
69246;SDS011;56358;56.328;43.992;2023-05-07T05:36:35;2.55;;;1.60;;
69246;SDS011;56358;56.328;43.992;2023-05-07T05:38:36;3.40;;;1.30;;
69246;SDS011;56358;56.328;43.992;2023-05-07T05:40:36;2.35;;;1.15;;
69246;SDS011;56358;56.328;43.992;2023-05-07T05:42:37;3.20;;;1.40;;
69246;SDS011;56358;56.328;43.992;2023-05-07T05:44:38;2.10;;;1.33;;
69246;SDS011;56358;56.328;43.992;2023-05-07T05:46:38;3.55;;;1.60;;
69246;SDS011;56358;56.328;43.992;2023-05-07T05:48:39;3.53;;;1.48;;
69246;SDS011;56358;56.328;43.992;2023-05-07T05:50:41;2.08;;;1.38;;
69246;SDS011;56358;56.328;43.992;2023-05-07T05:52:42;3.05;;;1.58;;
69246;SDS011;56358;56.328;43.992;2023-05-07T05:54:43;2.58;;;1.40;;
69246;SDS011;56358;56.328;43.992;2023-05-07T05:56:44;5.07;;;1.30;;
69246;SDS011;56358;56.328;43.992;2023-05-07T05:58:45;2.83;;;1.50;;
69246;SDS011;56358;56.328;43.992;2023-05-07T06:00:46;2.05;;;1.20;;
69246;SDS011;56358;56.328;43.992;2023-05-07T06:02:48;2.70;;;1.38;;
69246;SDS011;56358;56.328;43.992;2023-05-07T06:04:49;2.45;;;2.00;;
69246;SDS011;56358;56.328;43.992;2023-05-07T06:06:50;2.65;;;1.50;;
69246;SDS011;56358;56.328;43.992;2023-05-07T06:08:50;2.63;;;1.40;;
69246;SDS011;56358;56.328;43.992;2023-05-07T06:10:51;3.53;;;1.40;;
69246;SDS011;56358;56.328;43.992;2023-05-07T06:12:52;2.80;;;1.60;;
69246;SDS011;56358;56.328;43.992;2023-05-07T06:14:53;2.92;;;1.52;;
69246;SDS011;56358;56.328;43.992;2023-05-07T06:16:53;2.25;;;1.10;;
69246;SDS011;56358;56.328;43.992;2023-05-07T06:18:54;2.60;;;1.30;;
69246;SDS011;56358;56.328;43.992;2023-05-07T06:20:55;3.35;;;1.40;;
69246;SDS011;56358;56.328;43.992;2023-05-07T06:22:56;3.58;;;1.48;;
69246;SDS011;56358;56.328;43.992;2023-05-07T06:24:57;3.50;;;1.60;;
69246;SDS011;56358;56.328;43.992;2023-05-07T06:26:57;4.13;;;1.30;;
69246;SDS011;56358;56.328;43.992;2023-05-07T06:28:58;1.40;;;1.02;;
69246;SDS011;56358;56.328;43.992;2023-05-07T06:31:10;3.08;;;1.10;;
69246;SDS011;56358;56.328;43.992;2023-05-07T06:33:20;2.38;;;1.20;;
69246;SDS011;56358;56.328;43.992;2023-05-07T06:35:21;1.88;;;1.10;;
69246;SDS011;56358;56.328;43.992;2023-05-07T06:37:21;2.35;;;1.40;;
69246;SDS011;56358;56.328;43.992;2023-05-07T06:39:22;2.03;;;0.80;;
69246;SDS011;56358;56.328;43.992;2023-05-07T06:41:23;2.60;;;1.05;;
69246;SDS011;56358;56.328;43.992;2023-05-07T06:43:24;1.55;;;0.98;;
69246;SDS011;56358;56.328;43.992;2023-05-07T06:45:24;1.92;;;1.05;;
69246;SDS011;56358;56.328;43.992;2023-05-07T06:47:25;1.85;;;1.00;;
69246;SDS011;56358;56.328;43.992;2023-05-07T06:49:26;5.18;;;1.42;;
69246;SDS011;56358;56.328;43.992;2023-05-07T06:51:26;4.82;;;1.35;;
69246;SDS011;56358;56.328;43.992;2023-05-07T06:53:27;2.70;;;1.00;;
69246;SDS011;56358;56.328;43.992;2023-05-07T06:55:29;3.67;;;1.60;;
69246;SDS011;56358;56.328;43.992;2023-05-07T06:57:30;3.40;;;1.20;;
69246;SDS011;56358;56.328;43.992;2023-05-07T06:59:31;3.78;;;1.00;;
69246;SDS011;56358;56.328;43.992;2023-05-07T07:01:32;4.00;;;1.15;;
69246;SDS011;56358;56.328;43.992;2023-05-07T07:03:33;4.03;;;1.10;;
69246;SDS011;56358;56.328;43.992;2023-05-07T07:05:33;3.38;;;0.98;;
69246;SDS011;56358;56.328;43.992;2023-05-07T07:07:34;3.10;;;1.10;;
69246;SDS011;56358;56.328;43.992;2023-05-07T07:09:34;2.80;;;1.30;;
69246;SDS011;56358;56.328;43.992;2023-05-07T07:11:35;1.88;;;1.00;;
69246;SDS011;56358;56.328;43.992;2023-05-07T07:13:36;2.95;;;1.23;;
69246;SDS011;56358;56.328;43.992;2023-05-07T07:15:37;1.20;;;0.85;;
69246;SDS011;56358;56.328;43.992;2023-05-07T07:17:38;1.60;;;0.93;;
69246;SDS011;56358;56.328;43.992;2023-05-07T07:19:38;3.42;;;1.27;;
69246;SDS011;56358;56.328;43.992;2023-05-07T07:21:39;1.83;;;1.02;;
69246;SDS011;56358;56.328;43.992;2023-05-07T07:23:40;2.92;;;1.40;;
69246;SDS011;56358;56.328;43.992;2023-05-07T07:25:41;1.77;;;1.00;;
69246;SDS011;56358;56.328;43.992;2023-05-07T07:27:41;2.03;;;1.10;;
69246;SDS011;56358;56.328;43.992;2023-05-07T07:29:42;4.82;;;1.25;;
69246;SDS011;56358;56.328;43.992;2023-05-07T07:31:43;1.88;;;1.05;;
69246;SDS011;56358;56.328;43.992;2023-05-07T07:33:44;2.30;;;1.10;;
69246;SDS011;56358;56.328;43.992;2023-05-07T07:35:44;3.25;;;1.00;;
69246;SDS011;56358;56.328;43.992;2023-05-07T07:37:45;3.50;;;1.00;;
69246;SDS011;56358;56.328;43.992;2023-05-07T07:39:47;2.13;;;1.00;;
69246;SDS011;56358;56.328;43.992;2023-05-07T07:41:48;1.27;;;0.77;;
69246;SDS011;56358;56.328;43.992;2023-05-07T07:43:49;1.95;;;0.85;;
69246;SDS011;56358;56.328;43.992;2023-05-07T07:45:49;1.77;;;0.90;;
69246;SDS011;56358;56.328;43.992;2023-05-07T07:47:50;2.92;;;1.00;;
69246;SDS011;56358;56.328;43.992;2023-05-07T07:49:51;2.53;;;0.90;;
69246;SDS011;56358;56.328;43.992;2023-05-07T07:51:52;1.45;;;0.90;;
69246;SDS011;56358;56.328;43.992;2023-05-07T07:53:53;2.75;;;1.10;;
69246;SDS011;56358;56.328;43.992;2023-05-07T07:55:53;2.40;;;1.10;;
69246;SDS011;56358;56.328;43.992;2023-05-07T07:57:54;0.90;;;0.80;;
69246;SDS011;56358;56.328;43.992;2023-05-07T07:59:55;2.38;;;0.85;;
69246;SDS011;56358;56.328;43.992;2023-05-07T08:01:56;2.30;;;0.90;;
69246;SDS011;56358;56.328;43.992;2023-05-07T08:03:57;2.78;;;1.10;;
69246;SDS011;56358;56.328;43.992;2023-05-07T08:06:03;1.55;;;1.08;;
69246;SDS011;56358;56.328;43.992;2023-05-07T08:08:04;1.35;;;0.80;;
69246;SDS011;56358;56.328;43.992;2023-05-07T08:10:05;0.75;;;0.75;;
69246;SDS011;56358;56.328;43.992;2023-05-07T08:12:06;1.42;;;0.85;;
69246;SDS011;56358;56.328;43.992;2023-05-07T08:14:07;1.58;;;0.80;;
69246;SDS011;56358;56.328;43.992;2023-05-07T08:16:08;1.90;;;1.00;;
69246;SDS011;56358;56.328;43.992;2023-05-07T08:18:09;1.33;;;0.85;;
69246;SDS011;56358;56.328;43.992;2023-05-07T08:20:10;2.10;;;1.10;;
69246;SDS011;56358;56.328;43.992;2023-05-07T08:22:11;1.67;;;0.95;;
69246;SDS011;56358;56.328;43.992;2023-05-07T08:24:12;1.90;;;0.93;;
69246;SDS011;56358;56.328;43.992;2023-05-07T08:26:12;2.05;;;1.08;;
69246;SDS011;56358;56.328;43.992;2023-05-07T08:28:13;2.85;;;0.90;;
69246;SDS011;56358;56.328;43.992;2023-05-07T08:30:14;1.15;;;0.82;;
69246;SDS011;56358;56.328;43.992;2023-05-07T08:32:15;2.33;;;1.10;;
69246;SDS011;56358;56.328;43.992;2023-05-07T08:34:15;1.90;;;1.00;;
69246;SDS011;56358;56.328;43.992;2023-05-07T08:36:16;3.00;;;0.98;;
69246;SDS011;56358;56.328;43.992;2023-05-07T08:38:19;1.38;;;0.77;;
69246;SDS011;56358;56.328;43.992;2023-05-07T08:40:20;1.98;;;0.93;;
69246;SDS011;56358;56.328;43.992;2023-05-07T08:42:25;2.25;;;1.10;;
69246;SDS011;56358;56.328;43.992;2023-05-07T08:44:28;1.50;;;1.02;;
69246;SDS011;56358;56.328;43.992;2023-05-07T08:46:33;1.45;;;1.10;;
69246;SDS011;56358;56.328;43.992;2023-05-07T08:48:35;2.55;;;1.17;;
69246;SDS011;56358;56.328;43.992;2023-05-07T08:50:36;4.90;;;1.23;;
69246;SDS011;56358;56.328;43.992;2023-05-07T08:52:37;1.38;;;1.00;;
69246;SDS011;56358;56.328;43.992;2023-05-07T08:54:39;3.30;;;1.00;;
69246;SDS011;56358;56.328;43.992;2023-05-07T08:56:40;2.17;;;0.90;;
69246;SDS011;56358;56.328;43.992;2023-05-07T08:58:44;1.80;;;1.23;;
69246;SDS011;56358;56.328;43.992;2023-05-07T09:00:46;2.35;;;1.00;;
69246;SDS011;56358;56.328;43.992;2023-05-07T09:02:47;2.35;;;1.17;;
69246;SDS011;56358;56.328;43.992;2023-05-07T09:04:48;1.73;;;1.27;;
69246;SDS011;56358;56.328;43.992;2023-05-07T09:06:48;4.03;;;1.33;;
69246;SDS011;56358;56.328;43.992;2023-05-07T09:08:51;2.45;;;1.15;;
69246;SDS011;56358;56.328;43.992;2023-05-07T09:10:53;5.55;;;1.17;;
69246;SDS011;56358;56.328;43.992;2023-05-07T09:12:55;3.25;;;1.20;;
69246;SDS011;56358;56.328;43.992;2023-05-07T09:14:55;1.92;;;1.00;;
69246;SDS011;56358;56.328;43.992;2023-05-07T09:16:56;2.17;;;1.20;;
69246;SDS011;56358;56.328;43.992;2023-05-07T09:18:57;2.67;;;1.20;;
69246;SDS011;56358;56.328;43.992;2023-05-07T09:20:59;3.88;;;1.15;;
69246;SDS011;56358;56.328;43.992;2023-05-07T09:23:00;2.60;;;1.40;;
69246;SDS011;56358;56.328;43.992;2023-05-07T09:25:01;2.72;;;1.38;;
69246;SDS011;56358;56.328;43.992;2023-05-07T09:27:07;1.95;;;0.90;;
69246;SDS011;56358;56.328;43.992;2023-05-07T09:29:10;1.55;;;0.90;;
69246;SDS011;56358;56.328;43.992;2023-05-07T09:31:11;3.22;;;1.15;;
69246;SDS011;56358;56.328;43.992;2023-05-07T09:33:12;3.38;;;1.70;;
69246;SDS011;56358;56.328;43.992;2023-05-07T09:35:16;3.22;;;1.52;;
69246;SDS011;56358;56.328;43.992;2023-05-07T09:37:17;2.40;;;0.90;;
69246;SDS011;56358;56.328;43.992;2023-05-07T09:39:18;2.75;;;1.30;;
69246;SDS011;56358;56.328;43.992;2023-05-07T09:41:19;2.22;;;1.20;;
69246;SDS011;56358;56.328;43.992;2023-05-07T09:43:21;2.13;;;1.40;;
69246;SDS011;56358;56.328;43.992;2023-05-07T09:45:25;1.95;;;1.33;;
69246;SDS011;56358;56.328;43.992;2023-05-07T09:47:26;4.15;;;1.23;;
69246;SDS011;56358;56.328;43.992;2023-05-07T09:49:34;2.65;;;1.50;;
69246;SDS011;56358;56.328;43.992;2023-05-07T09:51:39;2.83;;;1.40;;
69246;SDS011;56358;56.328;43.992;2023-05-07T09:53:43;5.40;;;1.65;;
69246;SDS011;56358;56.328;43.992;2023-05-07T09:55:46;2.65;;;1.40;;
69246;SDS011;56358;56.328;43.992;2023-05-07T09:57:51;2.42;;;1.42;;
69246;SDS011;56358;56.328;43.992;2023-05-07T09:59:52;2.30;;;1.35;;
69246;SDS011;56358;56.328;43.992;2023-05-07T10:01:56;4.30;;;1.58;;
69246;SDS011;56358;56.328;43.992;2023-05-07T10:03:59;2.00;;;1.20;;
69246;SDS011;56358;56.328;43.992;2023-05-07T10:06:02;2.88;;;1.55;;
69246;SDS011;56358;56.328;43.992;2023-05-07T10:08:05;2.58;;;1.10;;
69246;SDS011;56358;56.328;43.992;2023-05-07T10:10:06;1.70;;;1.00;;
69246;SDS011;56358;56.328;43.992;2023-05-07T10:12:08;1.90;;;1.40;;
69246;SDS011;56358;56.328;43.992;2023-05-07T10:14:09;4.07;;;1.40;;
69246;SDS011;56358;56.328;43.992;2023-05-07T10:16:10;2.05;;;1.38;;
69246;SDS011;56358;56.328;43.992;2023-05-07T10:18:12;2.90;;;1.60;;
69246;SDS011;56358;56.328;43.992;2023-05-07T10:20:14;1.65;;;1.27;;
69246;SDS011;56358;56.328;43.992;2023-05-07T10:22:14;3.30;;;1.50;;
69246;SDS011;56358;56.328;43.992;2023-05-07T10:24:29;4.13;;;1.80;;
69246;SDS011;56358;56.328;43.992;2023-05-07T10:26:34;3.45;;;1.58;;
69246;SDS011;56358;56.328;43.992;2023-05-07T10:28:37;2.58;;;1.85;;
69246;SDS011;56358;56.328;43.992;2023-05-07T10:30:58;7.15;;;2.10;;
69246;SDS011;56358;56.328;43.992;2023-05-07T10:33:02;2.90;;;1.70;;
69246;SDS011;56358;56.328;43.992;2023-05-07T10:35:09;2.35;;;1.40;;
69246;SDS011;56358;56.328;43.992;2023-05-07T10:37:14;3.10;;;1.55;;
69246;SDS011;56358;56.328;43.992;2023-05-07T10:39:16;4.35;;;1.85;;
69246;SDS011;56358;56.328;43.992;2023-05-07T10:41:17;3.30;;;1.23;;
69246;SDS011;56358;56.328;43.992;2023-05-07T10:43:19;4.70;;;1.38;;
69246;SDS011;56358;56.328;43.992;2023-05-07T10:45:20;2.45;;;1.35;;
69246;SDS011;56358;56.328;43.992;2023-05-07T10:47:21;5.82;;;1.50;;
69246;SDS011;56358;56.328;43.992;2023-05-07T10:49:21;1.83;;;1.45;;
69246;SDS011;56358;56.328;43.992;2023-05-07T10:51:22;3.92;;;1.55;;
69246;SDS011;56358;56.328;43.992;2023-05-07T10:53:23;4.38;;;2.28;;
69246;SDS011;56358;56.328;43.992;2023-05-07T10:55:27;3.03;;;1.67;;
69246;SDS011;56358;56.328;43.992;2023-05-07T10:57:33;3.25;;;1.50;;
69246;SDS011;56358;56.328;43.992;2023-05-07T10:59:38;3.85;;;1.92;;
69246;SDS011;56358;56.328;43.992;2023-05-07T11:04:12;2.67;;;1.40;;
69246;SDS011;56358;56.328;43.992;2023-05-07T11:06:15;4.32;;;1.45;;
69246;SDS011;56358;56.328;43.992;2023-05-07T11:08:16;4.10;;;1.42;;
69246;SDS011;56358;56.328;43.992;2023-05-07T11:10:17;3.42;;;1.65;;
69246;SDS011;56358;56.328;43.992;2023-05-07T11:13:02;3.40;;;1.48;;
69246;SDS011;56358;56.328;43.992;2023-05-07T11:16:45;3.05;;;1.50;;
69246;SDS011;56358;56.328;43.992;2023-05-07T11:18:49;2.65;;;1.38;;
69246;SDS011;56358;56.328;43.992;2023-05-07T11:20:53;2.72;;;1.40;;
69246;SDS011;56358;56.328;43.992;2023-05-07T11:22:57;2.42;;;1.33;;
69246;SDS011;56358;56.328;43.992;2023-05-07T11:24:59;5.70;;;1.50;;
69246;SDS011;56358;56.328;43.992;2023-05-07T11:27:00;3.40;;;1.52;;
69246;SDS011;56358;56.328;43.992;2023-05-07T11:29:01;2.25;;;1.50;;
69246;SDS011;56358;56.328;43.992;2023-05-07T11:31:02;2.72;;;1.55;;
69246;SDS011;56358;56.328;43.992;2023-05-07T11:33:03;4.15;;;1.35;;
69246;SDS011;56358;56.328;43.992;2023-05-07T11:35:04;5.32;;;1.85;;
69246;SDS011;56358;56.328;43.992;2023-05-07T11:37:06;2.53;;;1.30;;
69246;SDS011;56358;56.328;43.992;2023-05-07T11:39:29;3.13;;;1.98;;
69246;SDS011;56358;56.328;43.992;2023-05-07T11:41:35;2.83;;;1.65;;
69246;SDS011;56358;56.328;43.992;2023-05-07T11:43:37;2.42;;;1.30;;
69246;SDS011;56358;56.328;43.992;2023-05-07T11:45:40;4.95;;;1.70;;
69246;SDS011;56358;56.328;43.992;2023-05-07T11:47:41;1.98;;;1.30;;
69246;SDS011;56358;56.328;43.992;2023-05-07T11:49:42;1.95;;;1.30;;
69246;SDS011;56358;56.328;43.992;2023-05-07T11:51:43;2.42;;;1.23;;
69246;SDS011;56358;56.328;43.992;2023-05-07T11:53:45;3.78;;;1.48;;
69246;SDS011;56358;56.328;43.992;2023-05-07T11:55:46;2.72;;;1.60;;
69246;SDS011;56358;56.328;43.992;2023-05-07T11:57:47;5.00;;;3.08;;
69246;SDS011;56358;56.328;43.992;2023-05-07T11:59:52;3.90;;;2.50;;
69246;SDS011;56358;56.328;43.992;2023-05-07T12:01:56;4.53;;;1.23;;
69246;SDS011;56358;56.328;43.992;2023-05-07T12:03:59;4.05;;;1.92;;
69246;SDS011;56358;56.328;43.992;2023-05-07T12:06:06;6.03;;;2.10;;